createdAt,value
2017-09-06T00:01:34.788Z,2.20
2017-09-06T00:04:02.300Z,2.57
2017-09-06T00:06:29.850Z,3.80
2017-09-06T00:08:57.399Z,2.50
2017-09-06T00:11:24.997Z,4.43
2017-09-06T00:13:52.528Z,4.37
2017-09-06T00:16:20.070Z,3.57
2017-09-06T00:18:47.649Z,5.13
2017-09-06T00:21:15.280Z,3.47
2017-09-06T00:23:42.815Z,3.30
2017-09-06T00:26:10.326Z,4.83
2017-09-06T00:28:37.861Z,2.33
2017-09-06T00:31:05.419Z,4.40
2017-09-06T00:33:32.963Z,2.13
2017-09-06T00:36:00.502Z,2.90
2017-09-06T00:38:28.057Z,7.73
2017-09-06T00:40:55.594Z,2.50
2017-09-06T00:43:23.121Z,1.83
2017-09-06T00:45:50.787Z,2.20
2017-09-06T00:48:18.344Z,1.70
2017-09-06T00:50:45.897Z,2.60
2017-09-06T00:53:13.443Z,2.50
2017-09-06T00:55:41.027Z,1.67
2017-09-06T00:58:08.704Z,2.00
2017-09-06T01:00:36.250Z,2.33
2017-09-06T01:03:03.809Z,2.07
2017-09-06T01:05:31.373Z,2.80
2017-09-06T01:07:58.927Z,1.67
2017-09-06T01:10:26.497Z,2.90
2017-09-06T01:12:54.044Z,1.97
2017-09-06T01:15:21.592Z,1.70
2017-09-06T01:17:49.159Z,1.60
2017-09-06T01:20:16.714Z,2.17
2017-09-06T01:22:44.272Z,1.50
2017-09-06T01:25:11.840Z,2.43
2017-09-06T01:27:39.394Z,1.87
2017-09-06T01:30:06.983Z,3.47
2017-09-06T01:32:34.550Z,1.60
2017-09-06T01:35:02.113Z,2.63
2017-09-06T01:37:29.645Z,1.93
2017-09-06T01:39:57.207Z,2.17
2017-09-06T01:42:24.767Z,1.77
2017-09-06T01:44:52.335Z,3.27
2017-09-06T01:47:19.869Z,2.70
2017-09-06T01:49:47.471Z,1.90
2017-09-06T01:52:14.988Z,2.40
2017-09-06T01:54:42.532Z,1.70
2017-09-06T01:57:10.129Z,1.57
2017-09-06T01:59:37.686Z,4.30
2017-09-06T02:02:05.212Z,1.87
2017-09-06T02:04:32.781Z,2.03
2017-09-06T02:07:01.357Z,1.63
2017-09-06T02:09:28.891Z,1.60
2017-09-06T02:11:56.442Z,2.10
2017-09-06T02:14:23.951Z,2.07
2017-09-06T02:16:51.485Z,2.40
2017-09-06T02:19:19.011Z,3.37
2017-09-06T02:21:46.556Z,2.03
2017-09-06T02:24:14.076Z,1.90
2017-09-06T02:26:41.625Z,1.90
2017-09-06T02:29:09.163Z,1.40
2017-09-06T02:31:36.709Z,2.40
2017-09-06T02:34:04.289Z,1.97
2017-09-06T02:36:31.845Z,1.73
2017-09-06T02:38:59.392Z,2.33
2017-09-06T02:41:26.938Z,2.37
2017-09-06T02:43:54.501Z,1.70
2017-09-06T02:46:22.064Z,2.40
2017-09-06T02:48:49.619Z,3.30
2017-09-06T02:51:17.143Z,2.30
2017-09-06T02:53:44.683Z,2.23
2017-09-06T02:56:12.230Z,1.70
2017-09-06T02:58:39.778Z,3.53
2017-09-06T03:01:07.311Z,1.60
2017-09-06T03:03:34.876Z,3.00
2017-09-06T03:06:02.400Z,4.23
2017-09-06T03:08:29.928Z,1.90
2017-09-06T03:10:57.515Z,2.40
2017-09-06T03:13:28.518Z,1.87
2017-09-06T03:15:56.074Z,3.00
2017-09-06T03:18:23.610Z,2.50
2017-09-06T03:20:51.200Z,3.10
2017-09-06T03:23:18.739Z,1.80
2017-09-06T03:25:46.304Z,3.63
2017-09-06T03:28:13.842Z,4.07
2017-09-06T03:30:41.424Z,3.93
2017-09-06T03:33:08.952Z,1.40
2017-09-06T03:35:36.471Z,2.10
2017-09-06T03:38:04.040Z,1.53
2017-09-06T03:40:31.590Z,1.57
2017-09-06T03:42:59.151Z,1.77
2017-09-06T03:45:26.758Z,3.67
2017-09-06T03:47:54.314Z,2.40
2017-09-06T03:50:21.835Z,1.83
2017-09-06T03:52:49.377Z,2.47
2017-09-06T03:55:16.911Z,1.83
2017-09-06T03:57:44.470Z,1.73
2017-09-06T04:00:12.007Z,1.40
2017-09-06T04:02:39.563Z,2.30
2017-09-06T04:05:07.096Z,1.83
2017-09-06T04:07:34.611Z,3.23
2017-09-06T04:10:02.152Z,2.60
2017-09-06T04:12:29.719Z,2.90
2017-09-06T04:14:57.283Z,2.63
2017-09-06T04:17:24.834Z,4.23
2017-09-06T04:19:52.380Z,2.43
2017-09-06T04:22:19.958Z,2.70
2017-09-06T04:24:47.499Z,4.43
2017-09-06T04:27:15.018Z,2.20
2017-09-06T04:29:42.579Z,2.40
2017-09-06T04:32:10.108Z,4.20
2017-09-06T04:34:37.677Z,3.30
2017-09-06T04:37:05.225Z,4.70
2017-09-06T04:39:32.773Z,2.63
2017-09-06T04:42:02.263Z,4.70
2017-09-06T04:44:29.805Z,3.67
2017-09-06T04:46:57.375Z,3.57
2017-09-06T04:49:24.921Z,6.20
2017-09-06T04:51:52.488Z,3.40
2017-09-06T04:54:20.052Z,4.47
2017-09-06T04:56:47.608Z,5.70
2017-09-06T04:59:15.156Z,6.47
2017-09-06T05:01:42.765Z,7.73
2017-09-06T05:04:10.370Z,7.30
2017-09-06T05:06:37.928Z,8.13
2017-09-06T05:09:05.493Z,5.30
2017-09-06T05:11:33.059Z,5.97
2017-09-06T05:14:00.603Z,6.33
2017-09-06T05:16:28.143Z,6.37
2017-09-06T05:18:55.728Z,5.50
2017-09-06T05:21:23.270Z,6.67
2017-09-06T05:23:51.616Z,9.57
2017-09-06T05:26:19.162Z,5.77
2017-09-06T05:28:46.703Z,5.50
2017-09-06T05:31:14.251Z,6.27
2017-09-06T05:33:41.831Z,6.57
2017-09-06T05:36:09.375Z,7.37
2017-09-06T05:38:36.936Z,8.77
2017-09-06T05:41:04.522Z,6.37
2017-09-06T05:43:32.063Z,7.17
2017-09-06T05:45:59.625Z,11.87
2017-09-06T05:48:27.178Z,7.50
2017-09-06T05:50:54.734Z,7.20
2017-09-06T05:53:22.293Z,9.23
2017-09-06T05:55:49.849Z,10.43
2017-09-06T05:58:17.388Z,8.23
2017-09-06T06:00:44.920Z,8.10
2017-09-06T06:03:12.579Z,8.80
2017-09-06T06:05:40.128Z,8.33
2017-09-06T06:08:07.673Z,7.83
2017-09-06T06:10:35.216Z,11.87
2017-09-06T06:13:02.784Z,10.13
2017-09-06T06:15:30.470Z,8.60
2017-09-06T06:17:58.089Z,9.20
2017-09-06T06:20:25.632Z,10.47
2017-09-06T06:22:53.192Z,11.17
2017-09-06T06:25:20.750Z,12.73
2017-09-06T06:27:48.300Z,13.10
2017-09-06T06:30:15.846Z,10.60
2017-09-06T06:32:43.462Z,9.20
2017-09-06T06:35:11.022Z,11.33
2017-09-06T06:37:38.619Z,10.80
2017-09-06T06:40:06.168Z,8.03
2017-09-06T06:42:33.698Z,6.87
2017-09-06T06:45:01.262Z,10.87
2017-09-06T06:47:28.836Z,11.20
2017-09-06T06:49:56.388Z,14.70
2017-09-06T06:52:23.920Z,16.77
2017-09-06T06:54:51.472Z,15.77
2017-09-06T06:57:19.004Z,17.27
2017-09-06T06:59:46.576Z,23.03
2017-09-06T07:02:14.139Z,23.07
2017-09-06T07:04:41.811Z,22.77
2017-09-06T07:07:09.388Z,21.27
2017-09-06T07:09:36.943Z,22.10
2017-09-06T07:12:04.511Z,18.37
2017-09-06T07:14:32.055Z,14.77
2017-09-06T07:16:59.626Z,19.33
2017-09-06T07:19:27.178Z,16.60
2017-09-06T07:21:54.759Z,14.90
2017-09-06T07:24:22.284Z,13.80
2017-09-06T07:26:49.857Z,12.50
2017-09-06T07:29:17.406Z,11.67
2017-09-06T07:31:44.955Z,14.63
2017-09-06T07:34:12.537Z,11.53
2017-09-06T07:36:40.095Z,12.57
2017-09-06T07:39:07.680Z,11.77
2017-09-06T07:41:35.215Z,8.50
2017-09-06T07:44:02.761Z,9.33
2017-09-06T07:46:30.304Z,7.53
2017-09-06T07:48:57.880Z,6.87
2017-09-06T07:51:25.429Z,5.13
2017-09-06T07:53:52.999Z,4.53
2017-09-06T07:56:20.570Z,4.10
2017-09-06T07:58:48.136Z,5.40
2017-09-06T08:01:15.665Z,6.03
2017-09-06T08:03:43.238Z,10.97
2017-09-06T08:06:10.781Z,9.90
2017-09-06T08:08:38.316Z,11.73
2017-09-06T08:11:05.947Z,11.87
2017-09-06T08:13:33.492Z,11.47
2017-09-06T08:16:01.055Z,12.90
2017-09-06T08:18:28.659Z,16.33
2017-09-06T08:20:56.222Z,12.10
2017-09-06T08:23:23.770Z,11.63
2017-09-06T08:25:51.326Z,15.00
2017-09-06T08:28:18.920Z,19.90
2017-09-06T08:30:46.497Z,19.77
2017-09-06T08:33:14.049Z,20.63
2017-09-06T08:35:41.657Z,16.10
2017-09-06T08:38:09.223Z,18.83
2017-09-06T08:40:36.778Z,17.23
2017-09-06T08:43:04.341Z,20.67
2017-09-06T08:45:31.876Z,20.60
2017-09-06T08:47:59.451Z,17.27
2017-09-06T08:50:26.988Z,19.23
2017-09-06T08:52:54.555Z,16.40
2017-09-06T08:55:22.102Z,16.20
2017-09-06T08:57:49.668Z,16.47
2017-09-06T09:00:17.222Z,25.43
2017-09-06T09:02:44.775Z,20.07
2017-09-06T09:05:12.318Z,17.33
2017-09-06T09:07:39.881Z,23.23
2017-09-06T09:10:07.435Z,26.63
2017-09-06T09:12:34.979Z,18.27
2017-09-06T09:15:02.589Z,21.40
2017-09-06T09:17:30.732Z,16.63
2017-09-06T09:19:58.303Z,13.83
2017-09-06T09:22:25.855Z,20.30
2017-09-06T09:24:53.399Z,11.73
2017-09-06T09:27:20.940Z,11.23
2017-09-06T09:29:48.491Z,15.60
2017-09-06T09:32:16.053Z,14.03
2017-09-06T09:34:43.593Z,16.20
2017-09-06T09:37:12.181Z,10.43
2017-09-06T09:39:39.733Z,8.73
2017-09-06T09:42:07.290Z,11.73
2017-09-06T09:44:34.823Z,16.47
2017-09-06T09:47:02.387Z,9.30
2017-09-06T09:49:31.896Z,9.47
2017-09-06T09:51:59.989Z,9.00
2017-09-06T09:54:28.169Z,11.50
2017-09-06T09:56:55.757Z,11.87
2017-09-06T09:59:23.285Z,13.03
2017-09-06T10:01:50.834Z,14.40
2017-09-06T10:04:20.380Z,9.20
2017-09-06T10:06:47.966Z,7.10
2017-09-06T10:09:15.522Z,10.67
2017-09-06T10:11:43.057Z,10.13
2017-09-06T10:14:10.603Z,10.37
2017-09-06T10:16:38.174Z,6.10
2017-09-06T10:19:05.758Z,7.73
2017-09-06T10:21:33.292Z,8.87
2017-09-06T10:24:00.843Z,8.23
2017-09-06T10:26:28.389Z,9.13
2017-09-06T10:28:55.937Z,9.90
2017-09-06T10:31:23.471Z,9.80
2017-09-06T10:33:51.783Z,7.00
2017-09-06T10:36:19.319Z,5.43
2017-09-06T10:38:47.170Z,8.40
2017-09-06T10:41:14.754Z,9.50
2017-09-06T10:43:42.289Z,9.13
2017-09-06T10:46:09.848Z,7.23
2017-09-06T10:48:37.379Z,7.33
2017-09-06T10:51:04.952Z,8.20
2017-09-06T10:53:32.517Z,10.37
2017-09-06T10:56:00.086Z,7.47
2017-09-06T10:58:28.594Z,9.37
2017-09-06T11:00:56.154Z,7.60
2017-09-06T11:03:23.696Z,6.30
2017-09-06T11:05:51.294Z,5.63
2017-09-06T11:08:18.836Z,6.63
2017-09-06T11:10:46.355Z,7.53
2017-09-06T11:13:13.908Z,4.77
2017-09-06T11:15:41.418Z,5.93
2017-09-06T11:18:08.968Z,4.90
2017-09-06T11:20:37.341Z,4.50
2017-09-06T11:23:04.883Z,13.30
2017-09-06T11:25:32.393Z,8.40
2017-09-06T11:27:59.979Z,7.67
2017-09-06T11:30:27.936Z,7.10
2017-09-06T11:32:55.540Z,6.17
2017-09-06T11:35:23.085Z,5.30
2017-09-06T11:37:50.609Z,5.57
2017-09-06T11:40:18.169Z,9.43
2017-09-06T11:42:45.711Z,6.87
2017-09-06T11:45:13.270Z,7.73
2017-09-06T11:47:40.839Z,10.10
2017-09-06T11:50:08.414Z,8.53
2017-09-06T11:52:35.960Z,8.23
2017-09-06T11:55:03.543Z,7.10
2017-09-06T11:57:31.110Z,7.80
2017-09-06T11:59:59.695Z,5.00
2017-09-06T12:02:27.999Z,7.53
2017-09-06T12:04:55.569Z,6.10
2017-09-06T12:07:23.129Z,10.90
2017-09-06T12:09:50.709Z,8.27
2017-09-06T12:12:18.246Z,8.70
2017-09-06T12:14:45.787Z,6.43
2017-09-06T12:17:13.334Z,9.53
2017-09-06T12:19:40.853Z,8.23
2017-09-06T12:22:08.393Z,6.43
2017-09-06T12:24:35.937Z,4.67
2017-09-06T12:27:03.507Z,16.20
2017-09-06T12:29:31.026Z,5.97
2017-09-06T12:31:59.758Z,9.97
2017-09-06T12:34:27.895Z,10.83
2017-09-06T12:36:55.452Z,6.10
2017-09-06T12:39:22.982Z,5.47
2017-09-06T12:41:50.507Z,8.07
2017-09-06T12:44:18.054Z,9.70
2017-09-06T12:46:45.635Z,7.33
2017-09-06T12:49:13.192Z,7.20
2017-09-06T12:51:40.735Z,6.00
2017-09-06T12:54:08.272Z,7.90
2017-09-06T12:56:35.808Z,9.10
2017-09-06T12:59:03.343Z,6.30
2017-09-06T13:01:30.856Z,4.20
2017-09-06T13:03:58.418Z,9.13
2017-09-06T13:06:25.972Z,8.53
2017-09-06T13:08:53.523Z,6.80
2017-09-06T13:11:21.054Z,5.00
2017-09-06T13:13:48.675Z,5.80
2017-09-06T13:16:16.226Z,7.33
2017-09-06T13:18:43.861Z,9.07
2017-09-06T13:21:11.403Z,11.10
2017-09-06T13:23:38.924Z,8.70
2017-09-06T13:26:06.518Z,9.33
2017-09-06T13:28:34.218Z,8.77
2017-09-06T13:31:01.882Z,6.90
2017-09-06T13:33:30.467Z,4.10
2017-09-06T13:35:59.349Z,9.80
2017-09-06T13:38:26.871Z,9.23
2017-09-06T13:40:54.427Z,9.93
2017-09-06T13:43:21.954Z,10.10
2017-09-06T13:45:49.503Z,6.77
2017-09-06T13:48:17.313Z,11.50
2017-09-06T13:50:44.855Z,6.07
2017-09-06T13:53:12.614Z,13.13
2017-09-06T13:55:40.155Z,9.00
2017-09-06T13:58:07.706Z,8.57
2017-09-06T14:00:35.250Z,6.40
2017-09-06T14:03:02.926Z,8.00
2017-09-06T14:05:30.523Z,7.50
2017-09-06T14:07:59.358Z,12.43
2017-09-06T14:10:26.878Z,12.20
2017-09-06T14:13:06.305Z,11.63
2017-09-06T14:15:33.850Z,13.13
2017-09-06T14:18:01.395Z,9.80
2017-09-06T14:20:30.365Z,7.53
2017-09-06T14:22:58.518Z,11.93
2017-09-06T14:25:26.071Z,10.17
2017-09-06T14:27:53.595Z,9.03
2017-09-06T14:30:21.162Z,9.20
2017-09-06T14:32:48.709Z,13.00
2017-09-06T14:35:16.268Z,10.33
2017-09-06T14:37:43.793Z,8.70
2017-09-06T14:40:11.360Z,7.50
2017-09-06T14:42:38.903Z,13.07
2017-09-06T14:45:06.434Z,11.37
2017-09-06T14:47:34.133Z,9.60
2017-09-06T14:50:01.648Z,7.53
2017-09-06T14:52:30.345Z,6.20
2017-09-06T14:54:58.598Z,10.40
2017-09-06T14:57:26.150Z,12.47
2017-09-06T14:59:53.905Z,13.00
2017-09-06T15:02:21.448Z,10.63
2017-09-06T15:04:48.972Z,9.83
2017-09-06T15:07:16.558Z,10.60
2017-09-06T15:09:46.234Z,6.00
2017-09-06T15:12:13.871Z,10.40
2017-09-06T15:14:41.430Z,9.10
2017-09-06T15:17:08.967Z,9.47
2017-09-06T15:19:36.531Z,17.03
2017-09-06T15:22:04.155Z,13.10
2017-09-06T15:24:31.730Z,8.70
2017-09-06T15:27:00.632Z,9.00
2017-09-06T15:29:28.986Z,8.43
2017-09-06T15:31:56.517Z,15.73
2017-09-06T15:34:24.080Z,12.00
2017-09-06T15:36:51.604Z,17.83
2017-09-06T15:39:19.170Z,14.20
2017-09-06T15:41:46.742Z,15.73
2017-09-06T15:44:14.296Z,14.43
2017-09-06T15:46:41.847Z,13.57
2017-09-06T15:49:09.403Z,12.23
2017-09-06T15:51:37.053Z,10.57
2017-09-06T15:54:04.579Z,18.60
2017-09-06T15:56:32.163Z,14.33
2017-09-06T15:58:59.703Z,15.67
2017-09-06T16:01:27.996Z,16.03
2017-09-06T16:03:55.551Z,14.67
2017-09-06T16:06:23.085Z,12.57
2017-09-06T16:08:50.620Z,8.93
2017-09-06T16:11:18.153Z,11.10
2017-09-06T16:13:47.682Z,12.27
2017-09-06T16:16:16.416Z,14.50
2017-09-06T16:18:44.046Z,11.97
2017-09-06T16:21:11.643Z,11.17
2017-09-06T16:23:39.206Z,15.57
2017-09-06T16:26:06.766Z,13.13
2017-09-06T16:28:34.334Z,12.33
2017-09-06T16:31:03.786Z,14.80
2017-09-06T16:33:31.598Z,11.50
2017-09-06T16:35:59.872Z,14.30
2017-09-06T16:38:28.409Z,11.70
2017-09-06T16:40:56.567Z,13.30
2017-09-06T16:43:24.095Z,12.40
2017-09-06T16:45:51.840Z,10.30
2017-09-06T16:48:19.371Z,9.07
2017-09-06T16:50:47.008Z,6.93
2017-09-06T16:53:14.555Z,13.23
2017-09-06T16:55:42.169Z,13.67
2017-09-06T16:58:09.728Z,12.03
2017-09-06T17:00:37.271Z,13.80
2017-09-06T17:03:04.910Z,9.00
2017-09-06T17:05:32.590Z,10.40
2017-09-06T17:08:00.181Z,14.73
2017-09-06T17:10:27.752Z,15.03
2017-09-06T17:12:55.330Z,13.50
2017-09-06T17:15:23.920Z,15.33
2017-09-06T17:17:51.479Z,14.10
2017-09-06T17:20:19.023Z,14.73
2017-09-06T17:22:46.599Z,11.93
2017-09-06T17:25:14.242Z,13.40
2017-09-06T17:27:41.796Z,11.43
2017-09-06T17:30:09.352Z,9.90
2017-09-06T17:32:36.870Z,13.60
2017-09-06T17:35:04.434Z,13.83
2017-09-06T17:37:32.033Z,11.73
2017-09-06T17:40:00.353Z,14.27
2017-09-06T17:42:28.913Z,8.33
2017-09-06T17:44:56.505Z,13.20
2017-09-06T17:47:24.070Z,14.83
2017-09-06T17:49:51.627Z,13.20
2017-09-06T17:52:19.168Z,10.73
2017-09-06T17:54:46.759Z,16.40
2017-09-06T17:57:14.289Z,12.53
2017-09-06T17:59:41.849Z,8.97
2017-09-06T18:02:09.399Z,15.03
2017-09-06T18:04:37.006Z,8.27
2017-09-06T18:07:04.557Z,13.93
2017-09-06T18:09:32.112Z,19.73
2017-09-06T18:12:00.758Z,10.10
2017-09-06T18:14:30.022Z,13.77
2017-09-06T18:16:58.079Z,19.50
2017-09-06T18:19:25.607Z,13.33
2017-09-06T18:21:53.159Z,11.17
2017-09-06T18:24:20.689Z,12.87
2017-09-06T18:26:48.270Z,12.90
2017-09-06T18:29:15.818Z,15.23
2017-09-06T18:31:43.358Z,12.90
2017-09-06T18:34:10.917Z,14.20
2017-09-06T18:36:38.452Z,12.97
2017-09-06T18:39:06.013Z,14.50
2017-09-06T18:41:33.546Z,13.10
2017-09-06T18:44:01.407Z,10.23
2017-09-06T18:46:30.084Z,12.73
2017-09-06T18:48:58.107Z,15.80
2017-09-06T18:51:25.642Z,10.80
2017-09-06T18:53:53.211Z,13.00
2017-09-06T18:56:20.727Z,11.60
2017-09-06T18:58:48.290Z,9.73
2017-09-06T19:01:15.836Z,16.40
2017-09-06T19:03:43.463Z,11.40
2017-09-06T19:06:11.027Z,13.60
2017-09-06T19:08:38.578Z,13.10
2017-09-06T19:11:06.373Z,11.07
2017-09-06T19:13:33.910Z,14.10
2017-09-06T19:16:01.466Z,12.60
2017-09-06T19:18:30.193Z,15.10
2017-09-06T19:20:58.214Z,22.43
2017-09-06T19:23:25.739Z,16.47
2017-09-06T19:25:53.277Z,10.60
2017-09-06T19:28:20.852Z,16.93
2017-09-06T19:30:48.400Z,16.53
2017-09-06T19:33:15.956Z,17.27
2017-09-06T19:35:43.490Z,12.43
2017-09-06T19:38:11.059Z,12.13
2017-09-06T19:40:38.591Z,27.33
2017-09-06T19:43:06.281Z,11.90
2017-09-06T19:45:33.812Z,12.77
2017-09-06T19:48:01.391Z,13.53
2017-09-06T19:50:29.625Z,18.90
2017-09-06T19:52:57.143Z,15.77
2017-09-06T19:55:24.694Z,13.50
2017-09-06T19:57:52.260Z,12.27
2017-09-06T20:00:19.814Z,16.43
2017-09-06T20:02:47.355Z,19.10
2017-09-06T20:05:14.911Z,13.03
2017-09-06T20:07:42.431Z,15.00
2017-09-06T20:10:10.013Z,10.90
2017-09-06T20:12:37.530Z,12.23
2017-09-06T20:15:05.066Z,12.83
2017-09-06T20:17:32.685Z,19.43
2017-09-06T20:20:00.526Z,23.47
2017-09-06T20:22:29.227Z,19.20
2017-09-06T20:24:56.784Z,14.53
2017-09-06T20:27:24.399Z,11.50
2017-09-06T20:29:51.923Z,17.83
2017-09-06T20:32:19.482Z,13.60
2017-09-06T20:34:47.010Z,15.40
2017-09-06T20:37:14.532Z,14.67
2017-09-06T20:39:42.133Z,15.30
2017-09-06T20:42:09.710Z,19.60
2017-09-06T20:44:37.408Z,15.40
2017-09-06T20:47:04.943Z,16.23
2017-09-06T20:49:32.471Z,13.10
2017-09-06T20:51:59.982Z,16.53
2017-09-06T20:54:28.331Z,15.43
2017-09-06T20:56:55.875Z,16.70
2017-09-06T20:59:23.414Z,17.97
2017-09-06T21:01:50.956Z,16.53
2017-09-06T21:04:18.624Z,14.60
2017-09-06T21:06:46.160Z,19.20
2017-09-06T21:09:13.680Z,20.37
2017-09-06T21:11:41.205Z,15.13
2017-09-06T21:14:08.749Z,22.00
2017-09-06T21:16:36.293Z,21.13
2017-09-06T21:19:03.842Z,17.23
2017-09-06T21:21:31.410Z,16.80
2017-09-06T21:23:59.568Z,17.60
2017-09-06T21:26:27.096Z,14.10
2017-09-06T21:28:54.646Z,19.37
2017-09-06T21:31:22.177Z,15.13
2017-09-06T21:33:50.365Z,15.37
2017-09-06T21:36:17.883Z,16.87
2017-09-06T21:38:45.398Z,8.97
2017-09-06T21:41:12.954Z,14.20
2017-09-06T21:43:40.467Z,17.13
2017-09-06T21:46:08.024Z,16.87
2017-09-06T21:48:35.554Z,10.47
2017-09-06T21:51:03.107Z,9.13
2017-09-06T21:53:30.631Z,13.33
2017-09-06T21:55:58.702Z,10.43
2017-09-06T21:58:26.228Z,12.50
2017-09-06T22:00:53.755Z,17.80
2017-09-06T22:03:21.312Z,12.60
2017-09-06T22:05:48.842Z,13.53
2017-09-06T22:08:16.394Z,14.80
2017-09-06T22:10:43.937Z,17.57
2017-09-06T22:13:11.501Z,15.17
2017-09-06T22:15:39.046Z,14.37
2017-09-06T22:18:06.583Z,11.40
2017-09-06T22:20:34.099Z,10.80
2017-09-06T22:23:01.663Z,9.00
2017-09-06T22:25:30.486Z,15.07
2017-09-06T22:27:59.182Z,11.47
2017-09-06T22:30:26.705Z,11.90
2017-09-06T22:32:54.271Z,12.97
2017-09-06T22:35:21.920Z,20.87
2017-09-06T22:37:49.447Z,14.43
2017-09-06T22:40:17.019Z,22.37
2017-09-06T22:42:44.599Z,14.03
2017-09-06T22:45:12.146Z,15.77
2017-09-06T22:47:39.681Z,9.90
2017-09-06T22:50:07.224Z,13.87
2017-09-06T22:52:34.759Z,9.00
2017-09-06T22:55:02.323Z,9.90
2017-09-06T22:57:29.858Z,11.57
2017-09-06T22:59:57.390Z,11.50
2017-09-06T23:02:24.944Z,16.73
2017-09-06T23:04:52.465Z,11.37
2017-09-06T23:07:19.997Z,12.87
2017-09-06T23:09:47.512Z,10.10
2017-09-06T23:12:15.043Z,14.80
2017-09-06T23:14:42.570Z,13.40
2017-09-06T23:17:10.127Z,11.80
2017-09-06T23:19:37.635Z,15.83
2017-09-06T23:22:05.170Z,17.87
2017-09-06T23:24:32.684Z,9.27
2017-09-06T23:27:00.227Z,20.17
2017-09-06T23:29:28.268Z,10.80
2017-09-06T23:31:55.806Z,15.03
2017-09-06T23:34:23.367Z,14.07
2017-09-06T23:36:50.884Z,18.30
2017-09-06T23:39:18.440Z,12.83
2017-09-06T23:41:45.972Z,16.97
2017-09-06T23:44:13.528Z,20.80
2017-09-06T23:46:41.056Z,11.47
2017-09-06T23:49:08.618Z,18.30
2017-09-06T23:51:36.139Z,15.43
2017-09-06T23:54:03.699Z,19.47
2017-09-06T23:56:31.233Z,14.10
2017-09-06T23:58:59.155Z,19.57
